Time;durP1;ratioP1;P1;durP2;ratioP2;P2;SDS_P1;SDS_P2;PMS_P1;PMS_P2;Temp;Humidity;BMP_temperature;BMP_pressure;BME280_temperature;BME280_humidity;BME280_pressure;Samples;Min_cycle;Max_cycle;Signal;HPM_P1;HPM_P2
2023/01/12 00:02:14;;;;;;;7.75;1.73;;;5.00;99.90;;;;;;5072138;28;20028;-64
2023/01/12 00:04:40;;;;;;;5.40;1.30;;;5.10;99.90;;;;;;5075037;28;20041;-63
2023/01/12 00:07:10;;;;;;;10.15;1.35;;;5.10;99.90;;;;;;5082135;28;20098;-64
2023/01/12 00:09:36;;;;;;;6.38;1.30;;;5.10;99.90;;;;;;5089103;28;20079;-63
2023/01/12 00:12:04;;;;;;;6.70;1.40;;;5.10;99.90;;;;;;5081346;28;20149;-63
2023/01/12 00:14:35;;;;;;;8.93;1.30;;;5.20;99.90;;;;;;5086813;28;20077;-63
2023/01/12 00:17:01;;;;;;;5.78;1.30;;;5.20;99.90;;;;;;5076977;28;20358;-63
2023/01/12 00:19:26;;;;;;;6.38;1.27;;;5.20;99.90;;;;;;5067327;28;20044;-64
2023/01/12 00:22:11;;;;;;;6.32;1.60;;;5.10;99.90;;;;;;5092069;28;20036;-63
2023/01/12 00:24:38;;;;;;;4.60;1.27;;;5.10;99.90;;;;;;5084206;28;20034;-64
2023/01/12 00:27:07;;;;;;;7.95;1.67;;;5.10;99.90;;;;;;5094252;28;20123;-64
2023/01/12 00:29:33;;;;;;;9.95;1.63;;;5.10;99.90;;;;;;5087201;28;20039;-63
2023/01/12 00:31:59;;;;;;;8.68;1.20;;;5.10;99.90;;;;;;5083778;28;20034;-64
2023/01/12 00:34:25;;;;;;;2.25;0.90;;;5.10;99.90;;;;;;5071550;28;20032;-64
2023/01/12 00:36:52;;;;;;;8.93;1.40;;;5.20;99.90;;;;;;5082215;28;20032;-66
2023/01/12 00:39:18;;;;;;;6.47;1.20;;;5.20;99.90;;;;;;5087570;28;20032;-63
2023/01/12 00:47:14;;;;;;;10.63;1.48;;;5.40;99.90;;;;;;5085164;28;20435;-63
2023/01/12 00:49:41;;;;;;;5.07;1.27;;;5.50;99.90;;;;;;5080210;28;20055;-63
2023/01/12 00:52:10;;;;;;;4.85;1.27;;;5.60;99.90;;;;;;5069954;28;20928;-64
2023/01/12 00:54:35;;;;;;;9.05;1.17;;;5.60;99.90;;;;;;5091060;28;20025;-64
2023/01/12 00:57:02;;;;;;;8.20;1.10;;;5.70;99.90;;;;;;5087675;28;20051;-64
2023/01/12 00:59:28;;;;;;;10.15;1.35;;;5.70;99.90;;;;;;5070523;28;20120;-63
2023/01/12 01:01:54;;;;;;;7.63;1.20;;;5.90;99.90;;;;;;5085902;28;20024;-64
2023/01/12 01:04:20;;;;;;;9.00;0.88;;;5.90;99.90;;;;;;5081764;28;20417;-62
2023/01/12 01:06:46;;;;;;;7.05;1.33;;;6.00;99.90;;;;;;5077829;28;20461;-63
2023/01/12 01:09:11;;;;;;;11.10;1.23;;;6.00;99.90;;;;;;5093744;28;20024;-62
2023/01/12 01:11:37;;;;;;;6.63;1.20;;;6.00;99.90;;;;;;5081755;28;20039;-63
2023/01/12 01:14:03;;;;;;;8.77;1.42;;;6.00;99.90;;;;;;5087771;28;20480;-63
2023/01/12 01:16:30;;;;;;;9.30;1.10;;;6.00;99.90;;;;;;5086681;28;20020;-62
2023/01/12 01:18:57;;;;;;;11.35;1.50;;;6.00;99.90;;;;;;5081305;28;20039;-63
2023/01/12 01:21:22;;;;;;;8.70;1.20;;;6.00;99.90;;;;;;5081705;28;20385;-63
2023/01/12 01:23:48;;;;;;;9.82;1.00;;;6.00;99.90;;;;;;5089598;28;20034;-64
2023/01/12 01:26:17;;;;;;;11.60;1.20;;;6.00;99.90;;;;;;5087971;28;20111;-64
2023/01/12 01:28:43;;;;;;;9.63;1.15;;;5.90;99.90;;;;;;5087671;28;20115;-63
2023/01/12 01:31:14;;;;;;;7.15;1.20;;;6.00;99.90;;;;;;5083489;28;20125;-64
2023/01/12 01:33:40;;;;;;;7.93;1.10;;;6.00;99.90;;;;;;5083108;28;20081;-63
2023/01/12 01:36:07;;;;;;;9.15;1.67;;;6.00;99.90;;;;;;5083087;28;20168;-65
2023/01/12 01:38:33;;;;;;;8.40;1.35;;;6.00;99.90;;;;;;5085394;28;20025;-63
2023/01/12 01:40:59;;;;;;;10.45;1.27;;;6.10;99.90;;;;;;5077055;28;20043;-63
2023/01/12 01:43:26;;;;;;;7.30;1.23;;;6.10;99.90;;;;;;5083698;28;20032;-63
2023/01/12 01:46:02;;;;;;;7.82;1.15;;;6.10;99.90;;;;;;5078742;28;20107;-64
2023/01/12 01:48:33;;;;;;;6.75;1.30;;;6.10;99.90;;;;;;5085593;28;20016;-62
2023/01/12 01:51:01;;;;;;;;;;;6.20;99.90;;;;;;5079509;28;20036;-63
2023/01/12 01:53:33;;;;;;;6.25;0.80;;;6.20;99.90;;;;;;5086898;28;19915;-63
2023/01/12 01:56:04;;;;;;;6.88;1.05;;;6.20;99.90;;;;;;5079162;28;20036;-62
2023/01/12 01:58:42;;;;;;;4.28;0.82;;;6.20;99.90;;;;;;5079005;28;20111;-63
2023/01/12 02:01:08;;;;;;;5.82;1.23;;;6.20;99.90;;;;;;5083555;28;20080;-64
2023/01/12 02:03:35;;;;;;;6.75;0.88;;;6.20;99.90;;;;;;5086487;28;20039;-62
2023/01/12 02:06:01;;;;;;;5.72;0.90;;;6.20;99.90;;;;;;5082447;28;20035;-62
2023/01/12 02:08:59;;;;;;;8.18;1.15;;;6.20;99.90;;;;;;5081582;28;20092;-64
2023/01/12 02:17:12;;;;;;;6.38;0.98;;;6.40;99.90;;;;;;5073563;28;20129;-65
2023/01/12 02:19:57;;;;;;;6.68;1.08;;;6.30;99.90;;;;;;5065079;28;20536;-63
2023/01/12 02:22:42;;;;;;;6.55;0.90;;;6.40;99.90;;;;;;5083361;28;20086;-63
2023/01/12 02:25:43;;;;;;;6.72;0.90;;;6.40;99.90;;;;;;5085441;28;20028;-62
2023/01/12 02:28:27;;;;;;;5.38;0.98;;;6.50;99.90;;;;;;5086154;28;20136;-62
2023/01/12 02:31:22;;;;;;;7.35;1.00;;;6.50;99.90;;;;;;5083218;28;20032;-65
2023/01/12 02:33:53;;;;;;;4.57;0.77;;;6.50;99.90;;;;;;5091206;28;20056;-64
2023/01/12 02:36:31;;;;;;;7.65;1.10;;;6.40;99.90;;;;;;5085434;28;20043;-64
2023/01/12 02:39:21;;;;;;;9.50;1.25;;;6.40;99.90;;;;;;5077154;28;20039;-64
2023/01/12 02:45:23;;;;;;;4.63;1.05;;;6.40;99.90;;;;;;5084510;28;20092;-64
2023/01/12 02:47:56;;;;;;;4.95;1.10;;;6.40;99.90;;;;;;5091531;28;20028;-64
2023/01/12 02:50:43;;;;;;;9.02;1.00;;;6.40;99.90;;;;;;5084621;28;20037;-64
2023/01/12 02:53:26;;;;;;;6.47;1.02;;;6.40;99.90;;;;;;5073081;28;20473;-63
2023/01/12 02:55:53;;;;;;;8.93;0.90;;;6.30;99.90;;;;;;5075355;28;20028;-64
2023/01/12 02:58:21;;;;;;;4.72;1.10;;;6.40;99.90;;;;;;5070055;28;20094;-64
2023/01/12 03:00:50;;;;;;;8.40;1.00;;;6.30;99.90;;;;;;5079664;28;20090;-63
2023/01/12 03:03:18;;;;;;;4.13;0.93;;;6.20;99.90;;;;;;5081224;28;20715;-63
2023/01/12 03:05:43;;;;;;;8.38;1.02;;;6.30;99.90;;;;;;5083729;28;20035;-63
2023/01/12 03:08:13;;;;;;;5.13;1.20;;;6.30;99.90;;;;;;5082922;28;20646;-64
2023/01/12 03:10:54;;;;;;;10.60;1.43;;;6.30;99.90;;;;;;5083709;28;20032;-62
2023/01/12 03:13:22;;;;;;;9.50;1.05;;;6.30;99.90;;;;;;5068652;28;20320;-63
2023/01/12 03:15:51;;;;;;;7.40;0.82;;;6.30;99.90;;;;;;5090411;28;20486;-64
2023/01/12 03:18:32;;;;;;;7.72;0.77;;;6.30;99.90;;;;;;5081896;28;20031;-63
2023/01/12 03:21:43;;;;;;;5.90;1.13;;;6.30;99.90;;;;;;5092850;28;20036;-65
2023/01/12 03:24:16;;;;;;;6.47;0.90;;;6.30;99.90;;;;;;5049056;28;20056;-66
2023/01/12 03:26:46;;;;;;;8.55;1.15;;;6.30;99.90;;;;;;5083459;28;20082;-62
2023/01/12 03:29:24;;;;;;;6.25;1.05;;;6.30;99.90;;;;;;5071760;28;20028;-63
2023/01/12 03:31:50;;;;;;;6.25;1.08;;;6.20;99.90;;;;;;5085254;28;20068;-64
2023/01/12 03:34:15;;;;;;;7.68;1.23;;;6.30;99.90;;;;;;5076670;28;20547;-63
2023/01/12 03:37:06;;;;;;;7.35;1.20;;;6.30;99.90;;;;;;5078816;28;20027;-64
2023/01/12 03:39:57;;;;;;;4.60;0.88;;;6.30;99.90;;;;;;5080798;28;20024;-65
2023/01/12 03:42:42;;;;;;;6.22;0.82;;;6.30;99.90;;;;;;5081389;28;20032;-64
2023/01/12 03:45:11;;;;;;;6.95;0.93;;;6.40;99.90;;;;;;5084246;28;20066;-64
2023/01/12 03:47:39;;;;;;;5.85;1.10;;;6.50;99.90;;;;;;5082620;28;20103;-65
2023/01/12 03:50:08;;;;;;;7.82;1.05;;;6.40;99.90;;;;;;5084667;28;20089;-62
2023/01/12 03:52:37;;;;;;;10.95;1.38;;;6.40;99.90;;;;;;5081599;28;20059;-64
2023/01/12 03:55:06;;;;;;;6.03;1.13;;;6.50;99.90;;;;;;5078908;28;20035;-64
2023/01/12 03:57:33;;;;;;;8.27;0.77;;;6.50;99.90;;;;;;5075086;28;20031;-64
2023/01/12 04:00:01;;;;;;;3.95;0.75;;;6.60;99.90;;;;;;5090540;28;20040;-66
2023/01/12 04:02:27;;;;;;;6.85;0.98;;;6.60;99.90;;;;;;5069236;28;20028;-64
2023/01/12 04:04:53;;;;;;;7.80;1.02;;;6.60;99.90;;;;;;5073146;28;20028;-62
2023/01/12 04:07:19;;;;;;;5.57;0.80;;;6.60;99.90;;;;;;5072722;28;20689;-62
2023/01/12 04:09:44;;;;;;;6.18;0.93;;;6.60;99.90;;;;;;5074887;28;20033;-65
2023/01/12 04:12:10;;;;;;;12.50;1.55;;;6.70;99.90;;;;;;5081733;28;20062;-61
2023/01/12 04:14:41;;;;;;;6.75;0.93;;;6.60;99.90;;;;;;5075700;28;20087;-63
2023/01/12 04:17:09;;;;;;;8.57;1.08;;;6.60;99.90;;;;;;5076775;28;20031;-64
2023/01/12 04:19:35;;;;;;;7.75;0.90;;;6.60;99.90;;;;;;5085358;28;20436;-64
2023/01/12 04:24:45;;;;;;;5.78;0.75;;;6.60;99.90;;;;;;5092234;28;20105;-63
2023/01/12 04:27:11;;;;;;;5.95;1.00;;;6.60;99.90;;;;;;5082675;28;20082;-63
2023/01/12 04:29:36;;;;;;;7.88;1.50;;;6.60;99.90;;;;;;5077870;28;20571;-63
2023/01/12 04:32:04;;;;;;;6.53;1.05;;;6.50;99.90;;;;;;5080399;28;20440;-64
2023/01/12 04:34:29;;;;;;;7.47;1.00;;;6.50;99.90;;;;;;5085137;28;20054;-64
2023/01/12 04:36:55;;;;;;;10.75;1.25;;;6.30;99.90;;;;;;5079455;28;20457;-62
2023/01/12 04:39:20;;;;;;;7.60;0.80;;;6.30;99.90;;;;;;5082531;28;20020;-62
2023/01/12 04:41:46;;;;;;;8.07;1.00;;;6.30;99.90;;;;;;5080421;28;20047;-63
2023/01/12 04:44:12;;;;;;;5.68;1.33;;;6.30;99.90;;;;;;5084045;28;20035;-63
2023/01/12 04:46:37;;;;;;;7.03;0.93;;;6.20;99.90;;;;;;5078094;28;20094;-62
2023/01/12 04:49:03;;;;;;;4.55;0.77;;;6.20;99.90;;;;;;5085112;28;20040;-66
2023/01/12 04:51:28;;;;;;;4.38;0.68;;;6.10;99.90;;;;;;5081635;28;20040;-61
2023/01/12 04:53:54;;;;;;;6.22;1.00;;;6.10;99.90;;;;;;5082894;28;20109;-63
2023/01/12 04:56:20;;;;;;;9.23;1.15;;;6.00;99.90;;;;;;5084855;28;20024;-64
2023/01/12 04:58:46;;;;;;;6.28;1.05;;;6.10;99.90;;;;;;5082183;28;20043;-62
2023/01/12 05:01:17;;;;;;;7.72;1.00;;;6.10;99.90;;;;;;5065821;28;20036;-63
2023/01/12 05:03:43;;;;;;;9.20;1.40;;;6.10;99.90;;;;;;5087385;28;20034;-62
2023/01/12 05:06:10;;;;;;;6.32;0.90;;;6.10;99.90;;;;;;5083719;28;20021;-62
2023/01/12 05:11:25;;;;;;;6.25;1.13;;;6.00;99.90;;;;;;5088474;28;20396;-63
2023/01/12 05:13:51;;;;;;;6.97;0.95;;;5.90;99.90;;;;;;5094507;28;20111;-63
2023/01/12 05:16:17;;;;;;;8.20;1.00;;;5.90;99.90;;;;;;5088307;28;20131;-61
2023/01/12 05:18:44;;;;;;;6.65;1.20;;;5.90;99.90;;;;;;5078421;28;20025;-63
2023/01/12 05:21:14;;;;;;;10.52;1.17;;;5.80;99.90;;;;;;5080058;28;20036;-62
2023/01/12 05:23:40;;;;;;;6.70;1.13;;;5.80;99.90;;;;;;5065706;28;20502;-61
2023/01/12 05:26:06;;;;;;;8.60;1.15;;;5.80;99.90;;;;;;5085059;28;20028;-63
2023/01/12 05:28:32;;;;;;;7.63;1.38;;;5.90;99.90;;;;;;5088790;28;20052;-62
2023/01/12 05:31:09;;;;;;;8.18;1.08;;;5.90;99.90;;;;;;5089501;28;20046;-62
2023/01/12 05:33:35;;;;;;;9.25;1.67;;;6.00;99.90;;;;;;5082905;28;20036;-61
2023/01/12 05:36:19;;;;;;;7.35;1.35;;;6.10;99.90;;;;;;5089599;28;20082;-62
2023/01/12 05:38:45;;;;;;;13.38;1.38;;;6.10;99.90;;;;;;5083024;28;20028;-63
2023/01/12 05:41:14;;;;;;;5.38;1.85;;;6.20;99.90;;;;;;5072450;28;20043;-62
2023/01/12 05:43:49;;;;;;;6.10;1.02;;;6.30;99.90;;;;;;5085795;28;20043;-61
2023/01/12 05:46:28;;;;;;;11.70;1.25;;;6.30;99.90;;;;;;5088833;28;20477;-61
2023/01/12 05:48:55;;;;;;;12.38;1.30;;;6.30;99.90;;;;;;5080331;28;20036;-64
2023/01/12 05:51:22;;;;;;;6.07;1.10;;;6.30;99.90;;;;;;5086885;28;20060;-64
2023/01/12 05:53:48;;;;;;;8.52;0.95;;;6.30;99.90;;;;;;5069577;28;20043;-65
2023/01/12 05:56:20;;;;;;;14.73;1.42;;;6.20;99.90;;;;;;5069876;28;20028;-62
2023/01/12 05:58:55;;;;;;;7.88;1.00;;;6.30;99.90;;;;;;5088428;28;20055;-62
2023/01/12 06:01:21;;;;;;;7.30;1.10;;;6.40;99.90;;;;;;5086110;28;20024;-61
2023/01/12 06:03:58;;;;;;;11.40;1.27;;;6.50;99.90;;;;;;5093834;28;20049;-61
2023/01/12 06:06:25;;;;;;;8.35;1.80;;;6.50;99.90;;;;;;5088724;28;20035;-61
2023/01/12 06:08:52;;;;;;;10.48;1.20;;;6.60;99.90;;;;;;5095112;28;20628;-62
2023/01/12 06:14:03;;;;;;;3.95;0.88;;;6.60;99.90;;;;;;5081324;28;20080;-62
2023/01/12 06:16:29;;;;;;;9.77;1.65;;;6.70;99.90;;;;;;5088017;28;20662;-62
2023/01/12 06:18:55;;;;;;;9.10;1.40;;;6.70;99.90;;;;;;5088139;28;20115;-62
2023/01/12 06:21:24;;;;;;;8.82;1.10;;;6.70;99.90;;;;;;5087476;28;20047;-61
2023/01/12 06:23:49;;;;;;;11.45;1.20;;;6.70;99.90;;;;;;5089938;28;20033;-62
2023/01/12 06:26:15;;;;;;;9.30;1.75;;;6.70;99.90;;;;;;5082264;28;20037;-61
2023/01/12 06:28:41;;;;;;;3.58;0.98;;;6.60;99.90;;;;;;5083639;28;20055;-62
2023/01/12 06:31:10;;;;;;;6.88;0.93;;;6.70;99.90;;;;;;5076835;28;20477;-62
2023/01/12 06:33:36;;;;;;;9.45;1.38;;;6.70;99.90;;;;;;5077607;28;20027;-62
2023/01/12 06:36:02;;;;;;;10.55;1.67;;;6.80;99.90;;;;;;5075988;28;20114;-61
2023/01/12 06:38:30;;;;;;;8.85;1.42;;;6.70;99.90;;;;;;5095160;28;20023;-61
2023/01/12 06:42:27;;;;;;;6.10;1.60;;;6.70;99.90;;;;;;5096040;28;20071;-62
2023/01/12 06:43:53;;;;;;;6.15;1.00;;;6.70;99.90;;;;;;5078646;28;20449;-60
2023/01/12 06:46:19;;;;;;;9.13;1.50;;;6.80;99.90;;;;;;5073090;28;20059;-60
2023/01/12 06:48:44;;;;;;;12.00;1.10;;;6.90;99.90;;;;;;5079320;28;20043;-61
2023/01/12 06:51:10;;;;;;;6.70;0.95;;;6.80;99.90;;;;;;5084217;28;20028;-62
2023/01/12 06:53:36;;;;;;;6.03;0.80;;;6.80;99.90;;;;;;5084041;28;20028;-62
2023/01/12 06:56:01;;;;;;;3.55;0.63;;;6.90;99.90;;;;;;5083887;28;20036;-62
2023/01/12 06:58:27;;;;;;;6.30;1.00;;;6.90;99.90;;;;;;5079420;28;20032;-63
2023/01/12 07:00:53;;;;;;;7.00;0.90;;;6.90;99.90;;;;;;5075758;28;20147;-61
2023/01/12 07:03:19;;;;;;;8.13;0.85;;;6.90;99.90;;;;;;5080975;28;20028;-60
2023/01/12 07:05:45;;;;;;;11.52;1.70;;;6.90;99.90;;;;;;5076482;28;20036;-63
2023/01/12 07:08:14;;;;;;;10.00;1.23;;;7.00;99.90;;;;;;5071161;28;20131;-62
2023/01/12 07:10:41;;;;;;;8.30;0.88;;;6.90;99.90;;;;;;5069651;28;20036;-62
2023/01/12 07:13:06;;;;;;;7.93;0.70;;;6.90;99.90;;;;;;5081089;28;20036;-62
2023/01/12 07:15:32;;;;;;;7.82;1.15;;;7.00;99.90;;;;;;5081061;28;20023;-60
2023/01/12 07:17:58;;;;;;;9.35;1.55;;;7.00;99.90;;;;;;5085897;28;20047;-61
2023/01/12 07:20:24;;;;;;;10.73;1.20;;;7.10;99.90;;;;;;5082192;28;20036;-62
2023/01/12 07:22:49;;;;;;;12.65;1.42;;;7.10;99.90;;;;;;5075503;28;20420;-61
2023/01/12 07:25:16;;;;;;;7.07;1.25;;;7.20;99.90;;;;;;5085063;28;20024;-62
2023/01/12 07:27:52;;;;;;;12.82;1.30;;;7.20;99.90;;;;;;5079425;28;20094;-61
2023/01/12 07:30:20;;;;;;;13.75;1.05;;;7.10;99.90;;;;;;5072802;28;20170;-61
2023/01/12 07:32:46;;;;;;;6.30;0.90;;;7.10;99.90;;;;;;5079480;28;20032;-61
2023/01/12 07:35:12;;;;;;;5.63;1.00;;;7.10;99.90;;;;;;5081221;28;20024;-62
2023/01/12 07:37:37;;;;;;;9.13;0.77;;;7.10;99.90;;;;;;5084049;28;20024;-62
2023/01/12 07:40:03;;;;;;;10.93;1.35;;;7.20;99.90;;;;;;5078875;28;20481;-61
2023/01/12 07:42:29;;;;;;;7.88;1.30;;;7.10;99.90;;;;;;5079208;28;20047;-60
2023/01/12 07:44:55;;;;;;;12.23;1.05;;;7.10;99.90;;;;;;5080785;28;20036;-61
2023/01/12 07:47:20;;;;;;;8.77;0.85;;;7.10;99.90;;;;;;5086293;28;20373;-60
2023/01/12 07:49:46;;;;;;;11.25;0.98;;;7.20;99.90;;;;;;5087412;28;20040;-61
2023/01/12 07:52:13;;;;;;;8.30;1.00;;;7.20;99.90;;;;;;5080714;28;20381;-61
2023/01/12 07:54:38;;;;;;;5.35;0.93;;;7.30;99.90;;;;;;5086307;28;20544;-61
2023/01/12 07:57:07;;;;;;;7.72;0.82;;;7.30;99.90;;;;;;5083717;28;20111;-61
2023/01/12 07:59:33;;;;;;;15.18;1.25;;;7.30;99.90;;;;;;5084760;28;20032;-60
2023/01/12 08:01:58;;;;;;;7.13;0.90;;;7.30;99.90;;;;;;5086388;28;20047;-60
2023/01/12 08:04:24;;;;;;;5.07;0.77;;;7.40;99.90;;;;;;5085021;28;20481;-61
2023/01/12 08:06:50;;;;;;;8.55;1.55;;;7.40;99.90;;;;;;5081427;28;20469;-61
2023/01/12 08:09:15;;;;;;;2.97;0.82;;;7.40;99.90;;;;;;5084967;28;20032;-63
2023/01/12 08:11:41;;;;;;;6.03;0.85;;;7.40;99.90;;;;;;5081069;28;20047;-61
2023/01/12 08:14:06;;;;;;;6.40;1.20;;;7.50;99.90;;;;;;5077046;28;20028;-63
2023/01/12 08:16:39;;;;;;;8.73;1.85;;;7.50;99.90;;;;;;5091021;28;20153;-61
2023/01/12 08:19:13;;;;;;;7.28;0.80;;;7.40;99.90;;;;;;5089088;28;20556;-63
2023/01/12 08:21:44;;;;;;;13.48;1.30;;;7.50;99.90;;;;;;5080187;28;20074;-64
2023/01/12 08:24:15;;;;;;;8.15;1.13;;;7.40;99.90;;;;;;5088152;28;20032;-62
2023/01/12 08:26:44;;;;;;;12.52;1.27;;;7.40;99.90;;;;;;5083215;28;20019;-61
2023/01/12 08:29:29;;;;;;;8.50;1.25;;;7.40;99.90;;;;;;5086130;28;20481;-62
2023/01/12 08:32:02;;;;;;;6.95;1.02;;;7.40;99.90;;;;;;5081273;28;20047;-61
2023/01/12 08:34:27;;;;;;;5.55;1.02;;;7.50;99.90;;;;;;5084759;28;20493;-62
2023/01/12 08:36:54;;;;;;;7.20;1.02;;;7.50;99.90;;;;;;5087855;28;20039;-60
2023/01/12 08:39:20;;;;;;;6.90;1.83;;;7.40;99.90;;;;;;5092642;28;20119;-62
2023/01/12 08:41:46;;;;;;;9.40;0.73;;;7.50;99.90;;;;;;5084215;28;20134;-61
2023/01/12 08:44:12;;;;;;;10.52;1.00;;;7.50;99.90;;;;;;5084737;28;20028;-62
2023/01/12 08:46:39;;;;;;;12.75;1.45;;;7.50;99.90;;;;;;5080864;28;20343;-63
2023/01/12 08:49:10;;;;;;;6.45;1.08;;;7.50;99.90;;;;;;5083502;28;20078;-61
2023/01/12 08:51:38;;;;;;;;;;;7.50;99.90;;;;;;5091120;28;20024;-63
2023/01/12 08:54:04;;;;;;;6.35;1.08;;;7.60;99.90;;;;;;5091234;28;19956;-62
2023/01/12 08:56:30;;;;;;;7.85;0.93;;;7.60;99.90;;;;;;5085014;28;20474;-61
2023/01/12 08:58:56;;;;;;;4.72;0.93;;;7.60;99.90;;;;;;5072519;28;20127;-62
2023/01/12 09:01:22;;;;;;;7.18;1.02;;;7.60;99.90;;;;;;5088866;28;20447;-61
2023/01/12 09:03:48;;;;;;;3.55;0.60;;;7.70;99.90;;;;;;5084718;28;20375;-63
2023/01/12 09:06:22;;;;;;;5.88;1.20;;;7.70;99.90;;;;;;5088386;28;20038;-63
2023/01/12 09:08:52;;;;;;;9.40;1.02;;;7.70;99.90;;;;;;5095740;28;20051;-62
2023/01/12 09:11:18;;;;;;;4.13;0.52;;;7.70;99.90;;;;;;5084337;28;20040;-63
2023/01/12 09:13:44;;;;;;;6.97;0.93;;;7.70;99.90;;;;;;5090760;28;20506;-61
2023/01/12 09:16:12;;;;;;;8.30;0.98;;;7.60;99.90;;;;;;5089760;28;20085;-61
2023/01/12 09:18:39;;;;;;;7.13;0.95;;;7.60;99.90;;;;;;5089186;28;20020;-62
2023/01/12 09:21:11;;;;;;;7.03;0.90;;;7.60;99.90;;;;;;5072383;28;20445;-62
2023/01/12 09:23:37;;;;;;;6.70;0.82;;;7.60;99.90;;;;;;5095756;28;20423;-63
2023/01/12 09:26:11;;;;;;;8.50;0.80;;;7.70;99.90;;;;;;5090380;28;20038;-65
2023/01/12 09:28:37;;;;;;;8.43;1.30;;;7.70;99.90;;;;;;5088177;28;20048;-62
2023/01/12 09:31:08;;;;;;;4.63;0.77;;;7.70;99.90;;;;;;5087510;28;20028;-62
2023/01/12 09:33:35;;;;;;;6.43;0.85;;;7.70;99.90;;;;;;5069496;28;20388;-62
2023/01/12 09:36:06;;;;;;;6.75;1.20;;;7.70;99.90;;;;;;5089988;28;20487;-63
2023/01/12 09:38:34;;;;;;;4.88;0.50;;;7.70;99.90;;;;;;5089801;28;20040;-62
2023/01/12 09:41:07;;;;;;;4.00;1.13;;;7.80;99.90;;;;;;5090406;28;20060;-63
2023/01/12 09:49:24;;;;;;;2.88;0.80;;;7.80;99.90;;;;;;5085432;28;20545;-64
2023/01/12 09:52:16;;;;;;;5.22;1.00;;;7.90;99.90;;;;;;5088938;28;20154;-62
2023/01/12 09:54:43;;;;;;;2.90;0.75;;;7.90;99.90;;;;;;5086931;28;20039;-64
2023/01/12 09:57:33;;;;;;;5.43;0.57;;;7.90;99.90;;;;;;5089893;28;20038;-63
2023/01/12 10:00:08;;;;;;;3.25;0.60;;;7.90;99.90;;;;;;5089965;28;20156;-63
2023/01/12 10:02:38;;;;;;;6.57;0.98;;;7.90;99.90;;;;;;5084631;28;20141;-64
2023/01/12 10:05:12;;;;;;;6.25;1.60;;;7.90;99.90;;;;;;5089000;28;20023;-63
2023/01/12 10:07:38;;;;;;;4.30;0.68;;;7.90;99.90;;;;;;5088923;28;20032;-63
2023/01/12 10:10:04;;;;;;;6.80;1.02;;;7.90;99.90;;;;;;5084769;28;20119;-64
2023/01/12 10:12:40;;;;;;;9.55;0.80;;;7.90;99.90;;;;;;5083060;28;20035;-65
2023/01/12 10:15:27;;;;;;;8.02;0.75;;;7.90;99.90;;;;;;5079954;28;20035;-65
2023/01/12 10:18:07;;;;;;;5.85;1.17;;;7.90;99.90;;;;;;5091455;28;20031;-62
2023/01/12 10:20:41;;;;;;;10.50;0.97;;;7.90;99.90;;;;;;5081809;28;20114;-64
2023/01/12 10:23:06;;;;;;;5.72;1.10;;;7.90;99.90;;;;;;5078948;28;20119;-66
2023/01/12 10:25:38;;;;;;;7.28;1.00;;;7.90;99.90;;;;;;5091542;28;20153;-64
2023/01/12 10:28:23;;;;;;;8.63;0.90;;;8.00;99.90;;;;;;5086110;28;20044;-64
2023/01/12 10:30:49;;;;;;;3.33;0.80;;;8.10;99.90;;;;;;5086817;28;20059;-64
2023/01/12 10:33:21;;;;;;;3.95;0.95;;;8.10;99.90;;;;;;5085868;28;20131;-63
2023/01/12 10:35:51;;;;;;;6.95;0.80;;;8.20;99.90;;;;;;5084017;28;20024;-64
2023/01/12 10:38:38;;;;;;;7.80;0.97;;;8.30;99.90;;;;;;5085903;28;20097;-63
2023/01/12 10:41:06;;;;;;;8.93;0.77;;;8.40;99.90;;;;;;5057944;28;20316;-63
2023/01/12 10:43:33;;;;;;;11.68;1.08;;;8.50;99.90;;;;;;5087186;28;20437;-62
2023/01/12 10:46:09;;;;;;;4.25;0.90;;;8.50;99.90;;;;;;5070403;28;20036;-62
2023/01/12 10:48:37;;;;;;;3.60;0.57;;;8.50;99.90;;;;;;5088538;28;20028;-64
2023/01/12 10:51:06;;;;;;;6.05;1.00;;;8.50;99.90;;;;;;5089121;28;20094;-63
2023/01/12 10:53:46;;;;;;;11.35;0.68;;;8.50;99.90;;;;;;5086202;28;20097;-64
2023/01/12 10:56:26;;;;;;;10.18;1.02;;;8.50;99.90;;;;;;5072750;28;20063;-63
2023/01/12 10:59:06;;;;;;;7.80;0.70;;;8.50;99.90;;;;;;5085485;28;20044;-62
2023/01/12 11:01:46;;;;;;;3.53;0.83;;;8.50;99.90;;;;;;5084210;28;20027;-62
2023/01/12 11:04:15;;;;;;;7.90;0.70;;;8.60;99.90;;;;;;5066631;28;20123;-63
2023/01/12 11:06:53;;;;;;;4.55;0.55;;;8.60;99.90;;;;;;5081511;28;20123;-63
2023/01/12 11:09:27;;;;;;;7.05;0.88;;;8.70;99.90;;;;;;5079509;28;20176;-63
2023/01/12 11:11:55;;;;;;;4.53;0.45;;;8.80;99.90;;;;;;5076872;28;20036;-62
2023/01/12 11:14:30;;;;;;;2.17;0.60;;;9.00;99.90;;;;;;5078506;28;20028;-64
2023/01/12 11:17:04;;;;;;;4.55;0.60;;;9.00;99.90;;;;;;5086379;28;20032;-61
2023/01/12 11:19:36;;;;;;;6.95;0.68;;;9.00;99.90;;;;;;5085261;28;20750;-63
2023/01/12 11:22:09;;;;;;;5.05;0.82;;;9.00;99.90;;;;;;5088097;28;20036;-62
2023/01/12 11:24:55;;;;;;;3.75;0.60;;;9.00;99.90;;;;;;5103006;28;20504;-63
2023/01/12 11:27:28;;;;;;;2.90;0.47;;;9.10;99.90;;;;;;5087926;28;20808;-63
2023/01/12 11:30:27;;;;;;;3.58;0.90;;;9.20;99.90;;;;;;5083609;28;20072;-63
2023/01/12 11:33:07;;;;;;;3.10;0.60;;;9.10;99.90;;;;;;5069147;28;20040;-63
2023/01/12 11:35:40;;;;;;;1.95;0.40;;;9.10;99.90;;;;;;5083902;28;20035;-63
2023/01/12 11:38:18;;;;;;;6.43;0.77;;;9.10;99.90;;;;;;5086326;28;20059;-63
2023/01/12 11:40:45;;;;;;;3.15;0.43;;;9.10;99.90;;;;;;5087007;28;20039;-65
2023/01/12 11:43:49;;;;;;;5.60;0.40;;;9.10;99.90;;;;;;5096375;28;20166;-64
2023/01/12 11:46:37;;;;;;;5.97;1.20;;;9.20;99.90;;;;;;5030991;28;20036;-64
2023/01/12 11:49:10;;;;;;;3.50;0.70;;;9.10;99.90;;;;;;5086242;28;20512;-63
2023/01/12 11:51:37;;;;;;;5.97;0.70;;;9.10;99.90;;;;;;5073901;28;20089;-65
2023/01/12 11:54:04;;;;;;;2.72;0.60;;;9.10;99.90;;;;;;5088121;28;20473;-64
2023/01/12 11:57:00;;;;;;;2.67;0.38;;;9.10;99.90;;;;;;5086296;28;20088;-64
2023/01/12 11:59:47;;;;;;;1.48;0.38;;;9.10;99.90;;;;;;5081388;28;20029;-66
2023/01/12 12:02:36;;;;;;;3.90;0.63;;;9.10;99.90;;;;;;5076131;28;20037;-63
2023/01/12 12:05:14;;;;;;;2.78;0.57;;;9.10;99.90;;;;;;5078782;28;20429;-61
2023/01/12 12:07:48;;;;;;;3.35;0.45;;;9.10;99.90;;;;;;5068828;28;20380;-62
2023/01/12 12:10:17;;;;;;;1.83;0.43;;;9.10;99.90;;;;;;5083235;28;20043;-62
2023/01/12 12:12:59;;;;;;;5.00;0.90;;;9.10;99.90;;;;;;5087412;28;20025;-62
2023/01/12 12:15:41;;;;;;;1.83;0.40;;;9.20;99.90;;;;;;5086387;28;20032;-62
2023/01/12 12:18:41;;;;;;;3.83;0.35;;;9.20;99.90;;;;;;5090725;28;20032;-63
2023/01/12 12:21:15;;;;;;;6.05;0.30;;;9.30;99.90;;;;;;5085795;28;20083;-62
2023/01/12 12:23:58;;;;;;;1.40;0.35;;;9.30;99.90;;;;;;5090617;28;20036;-62
2023/01/12 12:26:32;;;;;;;2.92;0.30;;;9.30;99.90;;;;;;5081214;28;20097;-63
2023/01/12 12:29:19;;;;;;;3.03;0.68;;;9.30;99.90;;;;;;5083474;28;20132;-62
2023/01/12 12:32:17;;;;;;;0.95;0.35;;;9.30;99.90;;;;;;5082344;28;20046;-62
2023/01/12 12:35:20;;;;;;;2.33;0.90;;;9.20;99.90;;;;;;5073550;28;20036;-62
2023/01/12 12:38:05;;;;;;;1.48;0.38;;;9.20;99.90;;;;;;5076630;28;20028;-63
2023/01/12 12:46:56;;;;;;;4.50;0.50;;;9.20;99.90;;;;;;5090061;28;20125;-62
2023/01/12 12:49:26;;;;;;;3.50;0.40;;;9.20;99.90;;;;;;5082515;28;20499;-63
2023/01/12 12:51:56;;;;;;;2.17;0.50;;;9.20;99.90;;;;;;5083035;28;20478;-63
2023/01/12 12:54:23;;;;;;;3.10;0.50;;;9.30;99.90;;;;;;5089699;28;20028;-63
2023/01/12 12:56:49;;;;;;;3.75;0.63;;;9.30;99.90;;;;;;5085193;28;20043;-62
2023/01/12 12:59:30;;;;;;;2.38;0.50;;;9.30;99.90;;;;;;5087225;28;20050;-63
2023/01/12 13:01:57;;;;;;;;;;;9.30;99.90;;;;;;5081888;28;20043;-63
2023/01/12 13:05:00;;;;;;;4.68;0.30;;;9.30;99.90;;;;;;5078533;28;19919;-63
2023/01/12 13:07:26;;;;;;;2.17;0.50;;;9.30;99.90;;;;;;5041648;28;20512;-62
2023/01/12 13:10:03;;;;;;;4.05;0.68;;;9.30;99.90;;;;;;5086440;28;20616;-64
2023/01/12 13:12:32;;;;;;;1.20;0.40;;;9.30;99.90;;;;;;5089578;28;20036;-62
2023/01/12 13:15:23;;;;;;;2.75;0.32;;;9.40;99.90;;;;;;5088336;28;20039;-62
2023/01/12 13:17:51;;;;;;;1.25;0.40;;;9.40;99.90;;;;;;5085042;28;20477;-62
2023/01/12 13:20:17;;;;;;;2.40;0.47;;;9.50;99.90;;;;;;5088918;28;20731;-61
2023/01/12 13:22:45;;;;;;;3.33;0.43;;;9.50;99.90;;;;;;5086004;28;20032;-61
2023/01/12 13:25:13;;;;;;;0.60;0.28;;;9.40;99.90;;;;;;5086276;28;20165;-62
2023/01/12 13:27:55;;;;;;;3.63;0.80;;;9.40;99.90;;;;;;5068803;28;20047;-62
2023/01/12 13:30:30;;;;;;;4.30;0.52;;;9.40;99.90;;;;;;5089941;28;20035;-62
2023/01/12 13:33:16;;;;;;;2.85;0.60;;;9.50;99.90;;;;;;5083633;28;20032;-61
2023/01/12 13:35:45;;;;;;;3.50;0.60;;;9.50;99.90;;;;;;5081470;28;20101;-63
2023/01/12 13:38:36;;;;;;;2.25;0.38;;;9.50;99.90;;;;;;5089746;28;20026;-64
2023/01/12 13:41:13;;;;;;;2.28;0.45;;;9.50;99.90;;;;;;5079473;28;20043;-61
2023/01/12 13:43:50;;;;;;;1.27;0.50;;;9.50;99.90;;;;;;5089064;28;20568;-61
2023/01/12 13:46:19;;;;;;;3.13;0.50;;;9.50;99.90;;;;;;5090228;28;20496;-62
2023/01/12 13:48:48;;;;;;;1.17;0.32;;;9.50;99.90;;;;;;5089274;28;20020;-61
2023/01/12 13:51:20;;;;;;;1.58;0.57;;;9.50;99.90;;;;;;5090274;28;20038;-64
2023/01/12 13:54:03;;;;;;;9.23;0.47;;;9.50;99.90;;;;;;5088985;28;20028;-62
2023/01/12 13:56:28;;;;;;;1.38;0.30;;;9.50;99.90;;;;;;5088018;28;20028;-63